createdAt,value
2022-10-25T00:02:19.931Z,98.06
2022-10-25T00:04:49.432Z,98.73
2022-10-25T00:07:18.278Z,98.08
2022-10-25T00:09:47.017Z,98.13
2022-10-25T00:12:15.661Z,96.85
2022-10-25T00:14:45.899Z,98.25
2022-10-25T00:17:15.721Z,98.62
2022-10-25T00:19:44.351Z,98.30
2022-10-25T00:22:12.956Z,98.85
2022-10-25T00:24:41.583Z,98.01
2022-10-25T00:27:10.389Z,99.14
2022-10-25T00:29:39.256Z,100.00
2022-10-25T00:32:09.661Z,100.00
2022-10-25T00:34:41.179Z,100.00
2022-10-25T00:37:10.022Z,99.29
2022-10-25T00:39:38.922Z,99.70
2022-10-25T00:42:09.433Z,98.97
2022-10-25T00:44:57.910Z,99.58
2022-10-25T00:47:49.753Z,100.00
2022-10-25T00:50:34.517Z,99.56
2022-10-25T00:53:12.174Z,100.00
2022-10-25T00:55:47.845Z,100.00
2022-10-25T00:58:23.255Z,100.00
2022-10-25T01:00:52.245Z,100.00
2022-10-25T01:03:25.230Z,100.00
2022-10-25T01:05:55.309Z,100.00
2022-10-25T01:08:25.653Z,100.00
2022-10-25T01:10:54.426Z,100.00
2022-10-25T01:13:23.492Z,100.00
2022-10-25T01:16:12.382Z,100.00
2022-10-25T01:18:56.368Z,99.72
2022-10-25T01:21:48.857Z,98.49
2022-10-25T01:25:10.330Z,98.44
2022-10-25T01:28:08.024Z,97.43
2022-10-25T01:31:18.746Z,97.50
2022-10-25T01:33:58.347Z,97.36
2022-10-25T01:36:42.844Z,96.89
2022-10-25T01:39:16.924Z,96.98
2022-10-25T01:41:58.303Z,96.72
2022-10-25T01:44:40.973Z,96.10
2022-10-25T01:47:18.910Z,95.90
2022-10-25T01:49:55.696Z,95.69
2022-10-25T01:52:26.205Z,96.16
2022-10-25T01:54:55.450Z,96.12
2022-10-25T01:57:46.395Z,96.04
2022-10-25T02:00:19.268Z,95.73
2022-10-25T02:03:03.682Z,95.51
2022-10-25T02:05:45.439Z,95.68
2022-10-25T02:08:29.154Z,95.11
2022-10-25T02:11:07.883Z,95.33
2022-10-25T02:13:53.307Z,95.33
2022-10-25T02:16:27.627Z,95.77
2022-10-25T02:19:02.799Z,96.29
2022-10-25T02:21:35.972Z,96.47
2022-10-25T02:24:12.373Z,96.04
2022-10-25T02:26:43.812Z,96.99
2022-10-25T02:29:15.746Z,96.48
2022-10-25T02:31:45.180Z,96.84
2022-10-25T02:34:15.415Z,96.68
2022-10-25T02:36:44.173Z,96.40
2022-10-25T02:39:12.905Z,96.76
2022-10-25T02:41:41.611Z,96.33
2022-10-25T02:44:10.300Z,95.91
2022-10-25T02:46:39.056Z,96.17
2022-10-25T02:49:07.711Z,96.27
2022-10-25T02:51:38.839Z,95.94
2022-10-25T02:54:07.818Z,95.46
2022-10-25T02:56:36.620Z,95.71
2022-10-25T02:59:05.515Z,95.71
2022-10-25T03:01:34.404Z,95.66
2022-10-25T03:04:03.196Z,95.77
2022-10-25T03:06:31.972Z,95.84
2022-10-25T03:09:02.127Z,96.20
2022-10-25T03:11:30.967Z,97.08
2022-10-25T03:13:59.621Z,97.01
2022-10-25T03:16:28.318Z,97.10
2022-10-25T03:18:59.549Z,95.73
2022-10-25T03:21:28.308Z,96.88
2022-10-25T03:23:56.993Z,96.49
2022-10-25T03:26:27.184Z,96.51
2022-10-25T03:28:56.987Z,95.65
2022-10-25T03:31:25.802Z,96.06
2022-10-25T03:33:54.635Z,95.95
2022-10-25T03:36:23.296Z,96.69
2022-10-25T03:38:52.148Z,96.17
2022-10-25T03:41:20.897Z,96.13
2022-10-25T03:43:50.987Z,96.27
2022-10-25T03:46:19.803Z,95.69
2022-10-25T03:48:48.515Z,96.12
2022-10-25T03:51:17.335Z,95.83
2022-10-25T03:53:47.308Z,95.64
2022-10-25T03:56:16.284Z,95.46
2022-10-25T03:58:45.090Z,95.62
2022-10-25T04:01:15.440Z,95.98
2022-10-25T04:03:45.660Z,95.59
2022-10-25T04:06:43.383Z,95.53
2022-10-25T04:09:12.103Z,95.93
2022-10-25T04:11:40.751Z,95.98
2022-10-25T04:14:09.516Z,96.28
2022-10-25T04:16:39.669Z,96.56
2022-10-25T04:19:08.378Z,96.75
2022-10-25T04:21:37.248Z,96.26
2022-10-25T04:24:06.538Z,96.72
2022-10-25T04:26:37.833Z,97.03
2022-10-25T04:29:07.711Z,97.12
2022-10-25T04:31:38.176Z,97.13
2022-10-25T04:34:06.930Z,97.45
2022-10-25T04:36:35.788Z,97.43
2022-10-25T04:39:04.562Z,97.50
2022-10-25T04:41:35.101Z,96.64
2022-10-25T04:44:05.213Z,98.27
2022-10-25T04:46:34.132Z,98.15
2022-10-25T04:49:05.402Z,98.28
2022-10-25T04:51:35.514Z,98.58
2022-10-25T04:54:08.064Z,98.26
2022-10-25T04:56:40.003Z,98.34
2022-10-25T04:59:16.125Z,98.59
2022-10-25T05:01:45.211Z,98.58
2022-10-25T05:04:15.443Z,98.60
2022-10-25T05:06:44.129Z,98.62
2022-10-25T05:09:12.809Z,98.50
2022-10-25T05:11:41.665Z,98.06
2022-10-25T05:14:15.629Z,97.94
2022-10-25T05:16:44.418Z,98.07
2022-10-25T05:19:14.647Z,98.99
2022-10-25T05:21:43.416Z,99.19
2022-10-25T05:24:12.164Z,98.79
2022-10-25T05:26:41.172Z,98.48
2022-10-25T05:29:13.821Z,98.49
2022-10-25T05:31:43.505Z,98.44
2022-10-25T05:34:12.502Z,99.06
2022-10-25T05:36:42.621Z,98.66
2022-10-25T05:39:11.480Z,98.72
2022-10-25T05:41:40.172Z,98.78
2022-10-25T05:44:09.230Z,99.07
2022-10-25T05:46:38.174Z,99.21
2022-10-25T05:49:06.863Z,99.36
2022-10-25T05:51:53.414Z,98.55
2022-10-25T05:54:23.588Z,98.88
2022-10-25T05:56:57.185Z,98.81
2022-10-25T05:59:31.212Z,98.99
2022-10-25T06:02:01.345Z,99.08
2022-10-25T06:04:31.089Z,99.27
2022-10-25T06:07:03.024Z,99.45
2022-10-25T06:09:33.283Z,99.81
2022-10-25T06:12:06.182Z,100.00
2022-10-25T06:14:38.736Z,100.00
2022-10-25T06:17:07.761Z,100.00
2022-10-25T06:19:37.551Z,100.00
2022-10-25T06:22:08.241Z,100.00
2022-10-25T06:24:46.046Z,100.00
2022-10-25T06:27:17.208Z,100.00
2022-10-25T06:29:55.174Z,100.00
2022-10-25T06:32:24.596Z,100.00
2022-10-25T06:34:54.002Z,100.00
2022-10-25T06:37:24.220Z,100.00
2022-10-25T06:39:52.997Z,100.00
2022-10-25T06:42:23.366Z,100.00
2022-10-25T06:44:52.518Z,100.00
2022-10-25T06:47:21.748Z,100.00
2022-10-25T06:50:02.401Z,100.00
2022-10-25T06:52:33.162Z,100.00
2022-10-25T06:55:02.378Z,100.00
2022-10-25T06:57:31.040Z,100.00
2022-10-25T07:00:11.292Z,100.00
2022-10-25T07:02:39.970Z,100.00
2022-10-25T07:05:27.015Z,100.00
2022-10-25T07:08:01.026Z,100.00
2022-10-25T07:10:29.748Z,100.00
2022-10-25T07:12:58.636Z,100.00
2022-10-25T07:15:30.707Z,100.00
2022-10-25T07:17:59.444Z,100.00
2022-10-25T07:20:28.288Z,100.00
2022-10-25T07:22:59.960Z,100.00
2022-10-25T07:25:33.060Z,100.00
2022-10-25T07:28:01.969Z,100.00
2022-10-25T07:30:32.731Z,100.00
2022-10-25T07:33:03.594Z,100.00
2022-10-25T07:35:42.110Z,100.00
2022-10-25T07:38:24.414Z,100.00
2022-10-25T07:41:01.015Z,100.00
2022-10-25T07:43:30.779Z,100.00
2022-10-25T07:46:00.125Z,100.00
2022-10-25T07:48:29.232Z,100.00
2022-10-25T07:50:57.980Z,100.00
2022-10-25T07:53:26.763Z,100.00
2022-10-25T07:55:57.026Z,100.00
2022-10-25T07:58:27.222Z,100.00
2022-10-25T08:01:04.117Z,100.00
2022-10-25T08:03:42.575Z,99.89
2022-10-25T08:06:11.264Z,100.00
2022-10-25T08:08:40.366Z,100.00
2022-10-25T08:11:09.400Z,100.00
2022-10-25T08:13:41.066Z,100.00
2022-10-25T08:16:10.295Z,99.71
2022-10-25T08:18:39.404Z,99.26
2022-10-25T08:21:09.122Z,99.95
2022-10-25T08:23:38.041Z,98.55
2022-10-25T08:26:07.293Z,99.41
2022-10-25T08:28:36.748Z,98.46
2022-10-25T08:31:07.569Z,97.71
2022-10-25T08:33:38.372Z,97.54
2022-10-25T08:36:08.178Z,95.98
2022-10-25T08:38:37.211Z,93.34
2022-10-25T08:41:17.616Z,92.40
2022-10-25T08:44:21.618Z,92.31
2022-10-25T08:47:00.973Z,89.57
2022-10-25T08:49:43.787Z,89.59
2022-10-25T08:52:23.525Z,89.14
2022-10-25T08:54:52.484Z,87.88
2022-10-25T08:57:26.058Z,86.29
2022-10-25T09:00:00.235Z,85.86
2022-10-25T09:02:44.188Z,84.72
2022-10-25T09:05:29.090Z,84.51
2022-10-25T09:08:28.559Z,83.73
2022-10-25T09:11:12.096Z,86.00
2022-10-25T09:13:52.828Z,82.86
2022-10-25T09:16:32.755Z,82.07
2022-10-25T09:19:09.761Z,80.96
2022-10-25T09:21:48.177Z,79.93
2022-10-25T09:24:24.871Z,77.03
2022-10-25T09:27:10.621Z,74.50
2022-10-25T09:29:44.064Z,76.43
2022-10-25T09:32:21.352Z,76.63
2022-10-25T09:35:17.399Z,74.91
2022-10-25T09:37:50.977Z,74.68
2022-10-25T09:40:24.732Z,74.58
2022-10-25T09:42:59.264Z,74.14
2022-10-25T09:45:37.355Z,74.00
2022-10-25T09:48:22.789Z,74.60
2022-10-25T09:51:00.787Z,74.88
2022-10-25T09:53:33.584Z,75.91
2022-10-25T09:56:06.159Z,75.81
2022-10-25T09:58:39.653Z,77.51
2022-10-25T10:01:16.883Z,77.76
2022-10-25T10:03:50.219Z,78.00
2022-10-25T10:06:33.355Z,79.07
2022-10-25T10:09:09.045Z,80.02
2022-10-25T10:11:53.395Z,80.58
2022-10-25T10:14:56.367Z,79.62
2022-10-25T10:17:27.554Z,80.56
2022-10-25T10:20:15.594Z,80.03
2022-10-25T10:22:55.898Z,79.92
2022-10-25T10:25:29.845Z,79.33
2022-10-25T10:28:00.371Z,79.80
2022-10-25T10:30:32.249Z,79.17
2022-10-25T10:36:28.404Z,77.88
2022-10-25T10:39:18.896Z,78.24
2022-10-25T10:42:02.578Z,78.38
2022-10-25T10:44:33.731Z,78.19
2022-10-25T10:47:09.020Z,78.23
2022-10-25T10:49:40.072Z,78.26
2022-10-25T10:57:29.331Z,78.56
2022-10-25T10:59:58.117Z,77.62
2022-10-25T11:02:40.192Z,76.70
2022-10-25T11:05:22.337Z,76.73
2022-10-25T11:07:58.614Z,76.20
2022-10-25T11:10:33.834Z,76.95
2022-10-25T11:13:17.390Z,76.95
2022-10-25T11:16:37.363Z,76.39
2022-10-25T11:19:41.212Z,75.83
2022-10-25T11:22:40.732Z,75.90
2022-10-25T11:25:27.984Z,76.52
2022-10-25T11:28:22.838Z,75.49
2022-10-25T11:31:08.083Z,76.50
2022-10-25T11:33:59.412Z,75.88
2022-10-25T11:36:49.221Z,76.14
2022-10-25T11:39:39.191Z,77.06
2022-10-25T11:42:41.941Z,77.55
2022-10-25T11:45:43.569Z,77.40
2022-10-25T11:48:45.931Z,77.04
2022-10-25T11:51:34.079Z,77.44
2022-10-25T11:54:31.311Z,75.27
2022-10-25T11:57:18.499Z,74.89
2022-10-25T12:00:04.120Z,76.24
2022-10-25T12:03:18.657Z,74.74
2022-10-25T12:06:10.191Z,75.03
2022-10-25T12:08:52.183Z,74.73
2022-10-25T12:11:30.441Z,74.10
2022-10-25T12:14:07.649Z,74.42
2022-10-25T12:16:40.383Z,75.93
2022-10-25T12:19:44.416Z,75.47
2022-10-25T12:23:16.158Z,75.84
2022-10-25T12:25:56.096Z,75.48
2022-10-25T12:28:33.539Z,74.28
2022-10-25T12:31:16.849Z,75.07
2022-10-25T12:33:54.722Z,73.91
2022-10-25T12:36:33.339Z,72.52
2022-10-25T12:39:12.482Z,73.62
2022-10-25T12:41:46.487Z,73.82
2022-10-25T12:44:55.477Z,74.18
2022-10-25T12:47:57.802Z,73.74
2022-10-25T12:50:52.580Z,74.38
2022-10-25T12:54:11.331Z,73.63
2022-10-25T12:57:05.218Z,73.19
2022-10-25T13:00:00.191Z,72.48
2022-10-25T13:03:28.201Z,72.43
2022-10-25T13:06:36.400Z,72.59
2022-10-25T13:09:15.076Z,71.78
2022-10-25T13:11:51.113Z,72.67
2022-10-25T13:14:28.787Z,71.36
2022-10-25T13:18:36.071Z,70.54
2022-10-25T13:21:09.494Z,71.05
2022-10-25T13:24:05.112Z,71.63
2022-10-25T13:27:25.608Z,72.90
2022-10-25T13:30:06.167Z,71.56
2022-10-25T13:32:38.327Z,72.76
2022-10-25T13:36:01.291Z,72.92
2022-10-25T13:38:38.833Z,73.35
2022-10-25T13:41:16.476Z,74.03
2022-10-25T13:44:26.854Z,74.63
2022-10-25T13:46:57.209Z,73.50
2022-10-25T13:49:42.318Z,74.45
2022-10-25T13:52:28.529Z,74.62
2022-10-25T13:54:59.232Z,73.32
2022-10-25T13:57:53.840Z,73.64
2022-10-25T14:00:49.763Z,73.77
2022-10-25T14:03:53.316Z,72.84
2022-10-25T14:06:29.581Z,74.05
2022-10-25T14:09:27.016Z,74.92
2022-10-25T14:12:16.755Z,75.29
2022-10-25T14:15:10.994Z,75.57
2022-10-25T14:17:43.977Z,76.19
2022-10-25T14:20:27.220Z,75.82
2022-10-25T14:23:01.830Z,76.44
2022-10-25T14:25:56.836Z,76.47
2022-10-25T14:28:32.604Z,76.02
2022-10-25T14:31:28.695Z,76.82
2022-10-25T14:34:04.299Z,77.67
2022-10-25T14:36:57.218Z,77.89
2022-10-25T14:39:28.589Z,77.80
2022-10-25T14:42:01.373Z,77.08
2022-10-25T14:44:32.972Z,77.54
2022-10-25T14:47:03.693Z,77.84
2022-10-25T14:49:34.556Z,77.72
2022-10-25T14:52:10.439Z,77.66
2022-10-25T14:54:44.248Z,77.33
2022-10-25T14:57:14.569Z,77.12
2022-10-25T14:59:52.381Z,77.41
2022-10-25T15:02:32.296Z,77.94
2022-10-25T15:05:07.683Z,78.02
2022-10-25T15:07:46.103Z,78.26
2022-10-25T15:10:41.157Z,77.92
2022-10-25T15:13:22.786Z,78.32
2022-10-25T15:15:55.492Z,78.74
2022-10-25T15:18:34.394Z,78.81
2022-10-25T15:21:13.517Z,78.95
2022-10-25T15:23:45.487Z,79.55
2022-10-25T15:26:32.771Z,79.87
2022-10-25T15:29:05.634Z,80.10
2022-10-25T15:31:35.196Z,80.73
2022-10-25T15:34:14.411Z,81.16
2022-10-25T15:36:46.393Z,81.01
2022-10-25T15:39:28.912Z,81.93
2022-10-25T15:41:58.406Z,81.88
2022-10-25T15:45:21.243Z,82.52
2022-10-25T15:47:51.336Z,82.45
2022-10-25T15:50:23.097Z,83.01
2022-10-25T15:52:54.326Z,82.84
2022-10-25T15:55:25.974Z,83.20
2022-10-25T15:57:56.319Z,83.10
2022-10-25T16:00:28.121Z,83.35
2022-10-25T16:02:59.137Z,83.56
2022-10-25T16:05:32.321Z,84.19
2022-10-25T16:12:34.992Z,84.45
2022-10-25T16:19:34.254Z,85.91
2022-10-25T16:22:03.762Z,85.24
2022-10-25T16:24:34.475Z,85.39
2022-10-25T16:27:30.979Z,85.76
2022-10-25T16:30:16.447Z,85.95
2022-10-25T16:33:06.208Z,85.09
2022-10-25T16:35:36.592Z,85.13
2022-10-25T16:38:06.944Z,84.51
2022-10-25T16:40:56.331Z,84.66
2022-10-25T16:43:34.027Z,84.03
2022-10-25T16:46:04.702Z,84.05
2022-10-25T16:49:01.102Z,83.76
2022-10-25T16:51:31.267Z,83.82
2022-10-25T16:54:07.093Z,84.14
2022-10-25T16:56:43.612Z,84.72
2022-10-25T16:59:13.325Z,84.55
2022-10-25T17:01:45.307Z,84.49
2022-10-25T17:04:17.723Z,84.33
2022-10-25T17:06:47.005Z,84.66
2022-10-25T17:09:16.674Z,84.40
2022-10-25T17:11:48.049Z,84.84
2022-10-25T17:14:17.433Z,84.84
2022-10-25T17:16:47.588Z,84.75
2022-10-25T17:19:19.176Z,84.55
2022-10-25T17:21:48.301Z,85.11
2022-10-25T17:24:17.381Z,85.55
2022-10-25T17:41:36.851Z,84.38
2022-10-25T17:44:06.036Z,84.46
2022-10-25T17:46:34.909Z,84.23
2022-10-25T17:49:06.057Z,84.15
2022-10-25T17:51:38.468Z,84.51
2022-10-25T17:54:12.206Z,84.44
2022-10-25T17:56:42.304Z,84.93
2022-10-25T17:59:12.739Z,84.66
2022-10-25T18:01:42.247Z,84.58
2022-10-25T18:04:11.307Z,85.11
2022-10-25T18:06:40.673Z,85.08
2022-10-25T18:09:11.141Z,85.78
2022-10-25T18:11:41.504Z,85.78
2022-10-25T18:14:12.515Z,85.43
2022-10-25T18:16:42.888Z,85.58
2022-10-25T18:19:16.435Z,85.72
2022-10-25T18:21:45.940Z,85.73
2022-10-25T18:24:15.594Z,85.93
2022-10-25T18:26:46.970Z,85.73
2022-10-25T18:29:17.054Z,85.78
2022-10-25T18:31:45.956Z,85.89
2022-10-25T18:34:15.008Z,86.22
2022-10-25T18:36:45.864Z,85.89
2022-10-25T18:39:14.696Z,85.81
2022-10-25T18:41:46.108Z,86.30
2022-10-25T18:44:15.482Z,86.27
2022-10-25T18:46:44.789Z,86.38
2022-10-25T18:49:15.479Z,86.27
2022-10-25T18:51:44.459Z,85.89
2022-10-25T18:54:14.263Z,85.44
2022-10-25T18:56:45.250Z,85.56
2022-10-25T18:59:14.881Z,84.87
2022-10-25T19:01:49.564Z,85.36
2022-10-25T19:04:19.402Z,85.81
2022-10-25T19:06:55.682Z,85.88
2022-10-25T19:09:26.789Z,85.77
2022-10-25T19:12:00.557Z,85.80
2022-10-25T19:14:44.014Z,85.21
2022-10-25T19:17:14.103Z,85.53
2022-10-25T19:19:43.140Z,85.00
2022-10-25T19:22:12.331Z,84.83
2022-10-25T19:24:42.633Z,84.31
2022-10-25T19:27:17.354Z,84.30
2022-10-25T19:29:46.195Z,84.58
2022-10-25T19:32:15.135Z,84.96
2022-10-25T19:34:52.631Z,84.89
2022-10-25T19:37:21.657Z,85.04
2022-10-25T19:39:51.726Z,84.66
2022-10-25T19:42:22.676Z,84.50
2022-10-25T19:44:54.117Z,84.53
2022-10-25T19:47:23.012Z,84.22
2022-10-25T19:49:55.066Z,83.80
2022-10-25T19:52:25.081Z,83.50
2022-10-25T19:56:15.698Z,84.02
2022-10-25T19:58:46.079Z,83.59
2022-10-25T20:01:21.920Z,83.59
2022-10-25T20:03:57.503Z,84.13
2022-10-25T20:06:29.220Z,84.24
2022-10-25T20:09:00.640Z,84.84
2022-10-25T20:11:31.739Z,84.28
2022-10-25T20:14:03.880Z,84.81
2022-10-25T20:17:56.976Z,84.72
2022-10-25T20:20:25.578Z,84.46
2022-10-25T20:22:54.229Z,84.72
2022-10-25T20:25:23.025Z,84.50
2022-10-25T20:27:52.092Z,84.06
2022-10-25T20:30:22.135Z,83.96
2022-10-25T20:32:51.150Z,84.40
2022-10-25T20:35:27.430Z,84.42
2022-10-25T20:37:56.348Z,83.85
2022-10-25T20:40:25.239Z,83.71
2022-10-25T20:42:53.857Z,83.54
2022-10-25T20:45:23.902Z,83.16
2022-10-25T20:47:55.950Z,83.91
2022-10-25T20:50:29.326Z,83.80
2022-10-25T20:53:09.787Z,84.22
2022-10-25T20:55:39.930Z,84.30
2022-10-25T20:58:09.561Z,84.41
2022-10-25T21:00:40.763Z,84.44
2022-10-25T21:03:12.852Z,84.66
2022-10-25T21:05:45.248Z,84.98
2022-10-25T21:08:15.973Z,85.04
2022-10-25T21:10:45.497Z,85.69
2022-10-25T21:13:14.148Z,85.45
2022-10-25T21:15:46.694Z,85.09
2022-10-25T21:18:16.386Z,85.96
2022-10-25T21:20:45.179Z,85.95
2022-10-25T21:23:14.314Z,86.16
2022-10-25T21:25:43.016Z,85.86
2022-10-25T21:28:11.842Z,85.35
2022-10-25T21:30:40.641Z,85.77
2022-10-25T21:33:10.880Z,85.05
2022-10-25T21:35:39.600Z,85.47
2022-10-25T21:38:08.292Z,84.88
2022-10-25T21:40:37.027Z,84.59
2022-10-25T21:43:05.712Z,84.26
2022-10-25T21:45:34.421Z,84.16
2022-10-25T21:48:03.253Z,84.17
2022-10-25T21:50:33.350Z,84.57
2022-10-25T21:53:02.086Z,84.01
2022-10-25T21:55:30.812Z,83.94
2022-10-25T21:58:00.011Z,84.69
2022-10-25T22:00:29.096Z,84.50
2022-10-25T22:03:00.066Z,84.95
2022-10-25T22:05:29.730Z,84.62
2022-10-25T22:08:03.077Z,84.53
2022-10-25T22:10:32.402Z,84.86
2022-10-25T22:13:06.465Z,85.07
2022-10-25T22:15:35.475Z,84.95
2022-10-25T22:18:04.667Z,85.31
2022-10-25T22:20:35.542Z,85.31
2022-10-25T22:23:06.905Z,85.73
2022-10-25T22:25:39.272Z,85.63
2022-10-25T22:28:08.022Z,85.63
2022-10-25T22:30:36.746Z,85.46
2022-10-25T22:33:05.684Z,85.15
2022-10-25T22:35:35.362Z,84.98
2022-10-25T22:38:05.562Z,85.47
2022-10-25T22:40:38.687Z,85.24
2022-10-25T22:43:08.061Z,85.54
2022-10-25T22:45:37.511Z,85.76
2022-10-25T22:48:06.725Z,85.70
2022-10-25T22:50:35.419Z,85.60
2022-10-25T22:53:05.450Z,85.60
2022-10-25T22:55:41.312Z,85.52
2022-10-25T22:58:10.244Z,85.09
2022-10-25T23:00:39.009Z,84.98
2022-10-25T23:03:07.622Z,84.48
2022-10-25T23:05:38.234Z,84.49
2022-10-25T23:08:09.170Z,84.64
2022-10-25T23:10:40.469Z,85.39
2022-10-25T23:13:09.510Z,85.49
2022-10-25T23:15:38.249Z,85.31
2022-10-25T23:18:07.375Z,85.40
2022-10-25T23:24:58.873Z,84.75
2022-10-25T23:27:30.628Z,84.97
2022-10-25T23:29:59.492Z,85.40
2022-10-25T23:32:28.856Z,85.28
2022-10-25T23:34:57.739Z,85.91
2022-10-25T23:37:26.607Z,85.77
2022-10-25T23:39:55.343Z,85.31
2022-10-25T23:42:25.687Z,85.10
2022-10-25T23:44:54.504Z,84.46
2022-10-25T23:47:25.437Z,84.06
2022-10-25T23:49:54.148Z,85.07
2022-10-25T23:52:22.998Z,85.95
2022-10-25T23:54:51.782Z,85.71
2022-10-25T23:57:20.781Z,85.74
2022-10-25T23:59:51.205Z,85.86
